createdAt,value
2019-01-16T00:00:07.334Z,5.23
2019-01-16T00:02:53.320Z,5.50
2019-01-16T00:05:43.782Z,7.17
2019-01-16T00:08:40.289Z,5.97
2019-01-16T00:11:26.025Z,6.17
2019-01-16T00:14:12.119Z,6.93
2019-01-16T00:17:08.701Z,6.53
2019-01-16T00:19:54.732Z,6.37
2019-01-16T00:22:45.538Z,5.83
2019-01-16T00:25:33.989Z,5.70
2019-01-16T00:28:21.424Z,6.00
2019-01-16T00:31:07.493Z,4.53
2019-01-16T00:34:00.716Z,8.63
2019-01-16T00:37:06.015Z,5.67
2019-01-16T00:40:11.269Z,6.57
2019-01-16T00:42:52.937Z,5.60
2019-01-16T00:45:40.364Z,7.00
2019-01-16T00:48:27.304Z,6.07
2019-01-16T00:51:20.484Z,4.60
2019-01-16T00:54:07.678Z,7.60
2019-01-16T00:56:49.037Z,5.50
2019-01-16T00:59:42.870Z,5.97
2019-01-16T01:02:35.933Z,5.63
2019-01-16T01:05:36.384Z,6.33
2019-01-16T01:08:27.308Z,7.27
2019-01-16T01:11:20.482Z,5.77
2019-01-16T01:14:13.649Z,7.40
2019-01-16T01:16:55.189Z,6.33
2019-01-16T01:19:45.169Z,7.30
2019-01-16T01:22:30.645Z,7.70
2019-01-16T01:25:24.191Z,6.40
2019-01-16T01:28:14.240Z,8.43
2019-01-16T01:31:10.517Z,9.27
2019-01-16T01:34:06.659Z,7.13
2019-01-16T01:36:59.825Z,5.23
2019-01-16T01:39:47.299Z,5.80
2019-01-16T01:42:40.337Z,5.53
2019-01-16T01:45:19.358Z,5.07
2019-01-16T01:48:04.990Z,6.10
2019-01-16T01:50:51.563Z,7.07
2019-01-16T01:53:34.853Z,6.30
2019-01-16T01:56:27.384Z,5.07
2019-01-16T01:59:14.144Z,5.33
2019-01-16T02:02:04.182Z,5.90
2019-01-16T02:05:06.669Z,5.97
2019-01-16T02:07:54.791Z,5.53
2019-01-16T02:10:42.381Z,5.40
2019-01-16T02:13:29.950Z,6.60
2019-01-16T02:16:32.133Z,5.20
2019-01-16T02:19:17.834Z,5.97
2019-01-16T02:22:10.834Z,5.83
2019-01-16T02:25:00.977Z,6.80
2019-01-16T02:27:48.298Z,5.63
2019-01-16T02:30:53.678Z,5.13
2019-01-16T02:33:33.402Z,4.83
2019-01-16T02:36:20.835Z,4.20
2019-01-16T02:39:09.899Z,4.90
2019-01-16T02:41:49.685Z,6.67
2019-01-16T02:44:37.184Z,5.43
2019-01-16T02:47:24.999Z,6.20
2019-01-16T02:50:15.202Z,6.57
2019-01-16T02:53:07.013Z,6.47
2019-01-16T02:55:46.325Z,6.07
2019-01-16T02:58:42.297Z,5.67
2019-01-16T03:01:28.150Z,5.17
2019-01-16T03:04:30.430Z,5.20
2019-01-16T03:07:32.564Z,5.60
2019-01-16T03:10:20.400Z,5.70
2019-01-16T03:13:09.812Z,4.97
2019-01-16T03:15:48.403Z,5.97
2019-01-16T03:18:35.317Z,5.33
2019-01-16T03:21:38.151Z,5.50
2019-01-16T03:24:28.283Z,4.97
2019-01-16T03:27:24.058Z,4.90
2019-01-16T03:30:20.305Z,4.90
2019-01-16T03:33:03.453Z,4.60
2019-01-16T03:35:49.098Z,5.40
2019-01-16T03:38:34.983Z,4.97
2019-01-16T03:41:12.554Z,4.37
2019-01-16T03:44:08.786Z,4.33
2019-01-16T03:46:46.351Z,4.63
2019-01-16T03:49:33.129Z,4.57
2019-01-16T03:52:18.577Z,4.07
2019-01-16T03:55:05.982Z,6.13
2019-01-16T03:57:52.001Z,3.77
2019-01-16T04:00:42.603Z,5.20
2019-01-16T04:03:28.655Z,5.57
2019-01-16T04:06:34.210Z,6.43
2019-01-16T04:09:19.966Z,5.13
2019-01-16T04:12:22.491Z,5.47
2019-01-16T04:15:18.690Z,4.70
2019-01-16T04:18:13.254Z,8.77
2019-01-16T04:20:54.737Z,5.80
2019-01-16T04:23:42.452Z,6.27
2019-01-16T04:26:28.452Z,5.37
2019-01-16T04:29:27.801Z,4.87
2019-01-16T04:32:15.229Z,5.30
2019-01-16T04:35:06.556Z,5.90
2019-01-16T04:37:44.653Z,5.07
2019-01-16T04:40:32.607Z,5.10
2019-01-16T04:43:17.230Z,5.37
2019-01-16T04:46:10.469Z,5.00
2019-01-16T04:49:03.607Z,4.73
2019-01-16T04:51:41.843Z,4.60
2019-01-16T04:54:35.026Z,5.63
2019-01-16T04:57:34.617Z,4.70
2019-01-16T05:00:31.306Z,5.87
2019-01-16T05:03:30.538Z,6.50
2019-01-16T05:06:17.762Z,7.13
2019-01-16T05:09:03.033Z,7.50
2019-01-16T05:11:41.075Z,6.87
2019-01-16T05:14:26.662Z,7.40
2019-01-16T05:17:12.343Z,7.70
2019-01-16T05:19:57.962Z,7.37
2019-01-16T05:22:43.757Z,5.13
2019-01-16T05:25:30.589Z,5.73
2019-01-16T05:28:23.760Z,5.77
2019-01-16T05:31:10.439Z,7.17
2019-01-16T05:33:58.194Z,4.90
2019-01-16T05:36:43.865Z,4.67
2019-01-16T05:39:42.948Z,5.80
2019-01-16T05:42:35.366Z,5.30
2019-01-16T05:45:38.544Z,6.90
2019-01-16T05:48:34.721Z,6.03
2019-01-16T05:51:40.543Z,6.67
2019-01-16T05:54:23.962Z,6.70
2019-01-16T05:57:11.944Z,6.63
2019-01-16T05:59:53.665Z,7.03
2019-01-16T06:02:54.304Z,5.63
2019-01-16T06:05:47.770Z,6.80
2019-01-16T06:08:44.008Z,6.57
2019-01-16T06:11:30.991Z,5.67
2019-01-16T06:14:18.833Z,6.77
2019-01-16T06:16:57.941Z,8.43
2019-01-16T06:19:43.401Z,7.03
2019-01-16T06:22:39.570Z,7.03
2019-01-16T06:25:23.661Z,7.47
2019-01-16T06:28:09.539Z,9.33
2019-01-16T06:30:49.943Z,8.57
2019-01-16T06:33:35.755Z,7.37
2019-01-16T06:36:26.293Z,8.17
2019-01-16T06:39:06.129Z,6.60
2019-01-16T06:42:11.491Z,8.80
2019-01-16T06:45:13.983Z,6.40
2019-01-16T06:47:59.712Z,7.53
2019-01-16T06:50:53.020Z,7.27
2019-01-16T06:53:40.773Z,7.03
2019-01-16T06:56:26.313Z,8.07
2019-01-16T06:59:19.378Z,7.67
2019-01-16T07:02:21.398Z,6.90
2019-01-16T07:05:07.229Z,9.07
2019-01-16T07:07:50.441Z,10.87
2019-01-16T07:10:43.745Z,8.53
2019-01-16T07:13:29.432Z,8.00
2019-01-16T07:16:10.818Z,8.60
2019-01-16T07:18:56.443Z,9.43
2019-01-16T07:21:49.806Z,7.93
2019-01-16T07:24:38.323Z,10.33
2019-01-16T07:27:28.331Z,9.73
2019-01-16T07:30:27.506Z,9.93
2019-01-16T07:33:23.906Z,10.77
2019-01-16T07:36:29.248Z,13.17
2019-01-16T07:39:15.940Z,18.30
2019-01-16T07:42:10.469Z,15.63
2019-01-16T07:45:06.740Z,16.33
2019-01-16T07:48:12.562Z,20.23
2019-01-16T07:50:55.147Z,22.80
2019-01-16T07:54:09.871Z,22.53
2019-01-16T07:57:01.446Z,23.33
2019-01-16T08:00:00.953Z,22.47
2019-01-16T08:02:53.031Z,23.60
2019-01-16T08:05:49.129Z,25.13
2019-01-16T08:08:42.349Z,24.07
2019-01-16T08:11:28.670Z,67.90
2019-01-16T08:14:23.236Z,65.03
2019-01-16T08:17:10.548Z,63.97
2019-01-16T08:19:56.293Z,45.23
2019-01-16T08:23:01.909Z,42.33
2019-01-16T08:25:49.272Z,35.60
2019-01-16T08:28:45.837Z,33.00
2019-01-16T08:31:39.157Z,27.37
2019-01-16T08:34:24.876Z,25.23
2019-01-16T08:37:17.897Z,18.93
2019-01-16T08:39:58.399Z,19.07
2019-01-16T08:42:51.975Z,16.87
2019-01-16T08:45:45.330Z,21.00
2019-01-16T08:48:30.977Z,19.10
2019-01-16T08:51:16.464Z,19.20
2019-01-16T08:54:18.689Z,19.70
2019-01-16T08:57:06.185Z,19.80
2019-01-16T08:59:53.552Z,20.80
2019-01-16T09:02:55.788Z,21.27
2019-01-16T09:05:45.719Z,20.10
2019-01-16T09:08:31.686Z,21.07
2019-01-16T09:11:24.743Z,19.50
2019-01-16T09:14:08.190Z,19.73
2019-01-16T09:16:55.553Z,20.23
2019-01-16T09:19:29.582Z,16.03
2019-01-16T09:22:15.277Z,17.27
2019-01-16T09:25:05.300Z,20.50
2019-01-16T09:28:01.549Z,16.03
2019-01-16T09:30:48.880Z,15.00
2019-01-16T09:33:54.513Z,15.73
2019-01-16T09:36:41.818Z,16.63
2019-01-16T09:39:32.261Z,16.77
2019-01-16T09:42:28.412Z,16.17
2019-01-16T09:45:24.858Z,15.90
2019-01-16T09:48:30.407Z,17.50
2019-01-16T09:51:17.700Z,15.63
2019-01-16T09:54:05.059Z,16.13
2019-01-16T09:56:52.404Z,16.40
2019-01-16T09:59:42.508Z,16.73
2019-01-16T10:02:30.104Z,17.40
2019-01-16T10:05:17.425Z,17.10
2019-01-16T10:08:02.456Z,20.77
2019-01-16T10:10:52.573Z,18.77
2019-01-16T10:13:36.424Z,19.33
2019-01-16T10:16:33.213Z,19.30
2019-01-16T10:19:18.662Z,19.27
2019-01-16T10:22:05.943Z,17.47
2019-01-16T10:24:51.613Z,17.80
2019-01-16T10:27:39.112Z,18.90
2019-01-16T10:30:42.478Z,18.80
2019-01-16T10:33:35.878Z,13.10
2019-01-16T10:36:22.345Z,15.23
2019-01-16T10:39:08.296Z,12.10
2019-01-16T10:42:10.486Z,13.10
2019-01-16T10:45:09.759Z,15.93
2019-01-16T10:47:46.075Z,13.80
2019-01-16T10:50:32.095Z,10.97
2019-01-16T10:53:17.837Z,11.23
2019-01-16T10:56:03.633Z,9.83
2019-01-16T10:59:05.729Z,11.90
2019-01-16T11:01:51.650Z,7.13
2019-01-16T11:04:42.260Z,6.83
2019-01-16T11:07:41.770Z,6.13
2019-01-16T11:10:33.597Z,5.17
2019-01-16T11:13:24.373Z,5.27
2019-01-16T11:16:10.089Z,8.93
2019-01-16T11:18:56.046Z,5.93
2019-01-16T11:21:43.126Z,6.43
2019-01-16T11:24:45.304Z,6.07
2019-01-16T11:27:47.910Z,5.87
2019-01-16T11:30:35.200Z,7.03
2019-01-16T11:33:21.009Z,6.23
2019-01-16T11:36:17.413Z,6.27
2019-01-16T11:39:16.626Z,6.10
2019-01-16T11:42:02.610Z,7.00
2019-01-16T11:44:49.992Z,7.63
2019-01-16T11:47:43.424Z,7.27
2019-01-16T11:50:46.040Z,7.63
2019-01-16T11:53:31.707Z,6.23
2019-01-16T11:56:17.972Z,7.03
2019-01-16T11:59:14.150Z,8.40
2019-01-16T12:02:08.364Z,7.17
2019-01-16T12:04:54.078Z,4.90
2019-01-16T12:07:29.941Z,6.60
2019-01-16T12:10:20.098Z,5.47
2019-01-16T12:13:10.442Z,5.13
2019-01-16T12:15:50.154Z,6.27
2019-01-16T12:18:49.446Z,6.80
2019-01-16T12:21:45.525Z,5.13
2019-01-16T12:24:31.327Z,15.67
2019-01-16T12:27:27.498Z,10.53
2019-01-16T12:30:02.211Z,7.43
2019-01-16T12:33:07.594Z,5.83
2019-01-16T12:36:06.262Z,7.07
2019-01-16T12:38:59.610Z,7.67
2019-01-16T12:41:45.262Z,5.57
2019-01-16T12:44:32.730Z,6.60
2019-01-16T12:47:18.348Z,6.43
2019-01-16T12:50:03.951Z,5.27
2019-01-16T12:52:57.031Z,5.60
2019-01-16T12:55:42.782Z,5.97
2019-01-16T12:58:33.197Z,8.33
2019-01-16T13:01:10.640Z,6.50
2019-01-16T13:03:51.851Z,5.73
2019-01-16T13:06:50.944Z,7.07
2019-01-16T13:09:40.995Z,9.63
2019-01-16T13:12:41.254Z,6.33
2019-01-16T13:15:50.340Z,7.60
2019-01-16T13:18:52.526Z,7.60
2019-01-16T13:21:40.109Z,7.07
2019-01-16T13:24:33.137Z,7.00
2019-01-16T13:27:18.930Z,7.10
2019-01-16T13:30:04.357Z,7.20
2019-01-16T13:32:51.644Z,10.20
2019-01-16T13:35:42.364Z,6.23
2019-01-16T13:38:41.794Z,8.13
2019-01-16T13:41:29.260Z,5.27
2019-01-16T13:44:25.699Z,7.60
2019-01-16T13:47:13.173Z,6.07
2019-01-16T13:50:00.541Z,7.30
2019-01-16T13:52:50.689Z,7.00
2019-01-16T13:55:40.830Z,6.83
2019-01-16T13:58:28.113Z,5.70
2019-01-16T14:01:08.515Z,7.60
2019-01-16T14:03:59.112Z,7.93
2019-01-16T14:06:49.223Z,7.03
2019-01-16T14:09:36.728Z,5.47
2019-01-16T14:12:19.103Z,7.20
2019-01-16T14:15:23.268Z,8.70
2019-01-16T14:18:11.982Z,7.73
2019-01-16T14:20:50.101Z,11.73
2019-01-16T14:23:46.437Z,8.70
2019-01-16T14:26:32.229Z,6.77
2019-01-16T14:29:25.749Z,5.60
2019-01-16T14:32:11.753Z,8.80
2019-01-16T14:34:53.488Z,5.93
2019-01-16T14:37:43.586Z,7.20
2019-01-16T14:40:33.654Z,6.73
2019-01-16T14:43:38.837Z,6.30
2019-01-16T14:46:28.835Z,4.80
2019-01-16T14:49:05.837Z,6.03
2019-01-16T14:51:51.652Z,5.60
2019-01-16T14:54:45.586Z,8.67
2019-01-16T14:57:31.253Z,7.33
2019-01-16T15:00:36.658Z,7.43
2019-01-16T15:03:26.773Z,11.80
2019-01-16T15:06:13.142Z,5.60
2019-01-16T15:09:15.253Z,6.50
2019-01-16T15:11:58.841Z,5.03
2019-01-16T15:15:13.484Z,6.50
2019-01-16T15:17:57.459Z,6.03
2019-01-16T15:20:47.982Z,5.57
2019-01-16T15:23:35.309Z,6.50
2019-01-16T15:26:29.042Z,7.70
2019-01-16T15:29:28.266Z,5.70
2019-01-16T15:32:15.584Z,10.40
2019-01-16T15:35:15.008Z,7.43
2019-01-16T15:38:04.870Z,8.47
2019-01-16T15:41:01.209Z,9.27
2019-01-16T15:43:36.902Z,7.83
2019-01-16T15:46:24.379Z,13.47
2019-01-16T15:49:14.452Z,7.47
2019-01-16T15:51:57.901Z,6.53
2019-01-16T15:54:50.030Z,7.80
2019-01-16T15:57:31.468Z,9.10
2019-01-16T16:00:21.799Z,9.83
2019-01-16T16:03:09.111Z,10.20
2019-01-16T16:05:54.778Z,10.13
2019-01-16T16:08:47.553Z,9.67
2019-01-16T16:11:44.073Z,13.10
2019-01-16T16:14:37.423Z,12.33
2019-01-16T16:17:30.869Z,16.67
2019-01-16T16:20:27.349Z,12.03
2019-01-16T16:23:05.090Z,17.70
2019-01-16T16:25:50.954Z,20.93
2019-01-16T16:28:37.523Z,28.97
2019-01-16T16:31:36.727Z,31.40
2019-01-16T16:34:24.427Z,25.83
2019-01-16T16:37:21.086Z,24.17
2019-01-16T16:40:14.549Z,29.53
2019-01-16T16:43:03.769Z,36.40
2019-01-16T16:46:03.451Z,41.50
2019-01-16T16:49:05.674Z,38.27
2019-01-16T16:51:53.137Z,31.80
2019-01-16T16:54:52.565Z,40.33
2019-01-16T16:57:38.270Z,37.60
2019-01-16T17:00:33.203Z,78.37
2019-01-16T17:03:25.796Z,60.07
2019-01-16T17:06:31.025Z,54.23
2019-01-16T17:09:17.289Z,70.70
2019-01-16T17:12:19.526Z,132.97
2019-01-16T17:15:35.571Z,179.27
2019-01-16T17:18:31.732Z,135.90
2019-01-16T17:21:30.994Z,69.97
2019-01-16T17:24:06.686Z,46.40
2019-01-16T17:27:00.113Z,34.90
2019-01-16T17:29:38.188Z,29.67
2019-01-16T17:32:24.119Z,28.63
2019-01-16T17:35:08.702Z,36.00
2019-01-16T17:37:54.255Z,41.10
2019-01-16T17:40:44.639Z,38.87
2019-01-16T17:43:32.049Z,30.50
2019-01-16T17:46:22.334Z,24.03
2019-01-16T17:49:15.498Z,20.17
2019-01-16T17:52:07.911Z,23.23
2019-01-16T17:54:53.671Z,27.20
2019-01-16T17:57:47.112Z,26.23
2019-01-16T18:00:33.003Z,23.50
2019-01-16T18:03:18.561Z,22.67
2019-01-16T18:06:04.546Z,30.33
2019-01-16T18:08:49.850Z,37.40
2019-01-16T18:11:26.645Z,42.93
2019-01-16T18:14:20.636Z,38.37
2019-01-16T18:17:06.593Z,28.17
2019-01-16T18:19:59.638Z,21.67
2019-01-16T18:22:49.944Z,19.33
2019-01-16T18:25:37.374Z,32.33
2019-01-16T18:28:29.206Z,26.60
2019-01-16T18:31:15.055Z,22.00
2019-01-16T18:34:17.533Z,20.00
2019-01-16T18:37:00.444Z,19.47
2019-01-16T18:39:50.653Z,19.13
2019-01-16T18:42:40.709Z,27.70
2019-01-16T18:45:19.550Z,27.47
2019-01-16T18:48:03.146Z,27.67
2019-01-16T18:50:50.682Z,31.97
2019-01-16T18:53:41.073Z,30.03
2019-01-16T18:56:26.724Z,31.70
2019-01-16T18:59:32.021Z,37.30
2019-01-16T19:02:22.106Z,33.87
2019-01-16T19:05:09.637Z,30.53
2019-01-16T19:08:14.877Z,37.33
2019-01-16T19:10:54.738Z,42.13
2019-01-16T19:13:42.820Z,46.50
2019-01-16T19:16:35.184Z,35.20
2019-01-16T19:19:28.272Z,31.77
2019-01-16T19:22:13.622Z,34.30
2019-01-16T19:24:56.017Z,28.77
2019-01-16T19:27:41.893Z,32.07
2019-01-16T19:30:43.185Z,57.07
2019-01-16T19:33:25.324Z,56.90
2019-01-16T19:36:11.392Z,49.13
2019-01-16T19:39:11.777Z,41.47
2019-01-16T19:41:59.420Z,37.00
2019-01-16T19:44:46.777Z,28.53
2019-01-16T19:47:26.934Z,35.30
2019-01-16T19:50:12.757Z,33.77
2019-01-16T19:53:06.194Z,33.57
2019-01-16T19:56:08.447Z,33.47
2019-01-16T19:59:03.057Z,42.13
2019-01-16T20:01:53.240Z,40.07
2019-01-16T20:04:46.340Z,34.00
2019-01-16T20:07:51.936Z,34.57
2019-01-16T20:10:43.704Z,28.73
2019-01-16T20:13:31.000Z,41.23
2019-01-16T20:16:40.476Z,39.80
2019-01-16T20:19:27.666Z,33.87
2019-01-16T20:22:20.105Z,25.00
2019-01-16T20:25:04.644Z,22.50
2019-01-16T20:27:50.621Z,27.07
2019-01-16T20:30:52.900Z,40.00
2019-01-16T20:33:48.620Z,45.07
2019-01-16T20:36:35.929Z,69.43
2019-01-16T20:39:25.968Z,90.40
2019-01-16T20:42:13.300Z,92.70
2019-01-16T20:45:02.367Z,88.50
2019-01-16T20:47:49.893Z,139.70
2019-01-16T20:50:40.334Z,191.33
2019-01-16T20:53:22.765Z,197.17
2019-01-16T20:56:28.196Z,119.40
2019-01-16T20:59:22.142Z,47.30
2019-01-16T21:02:24.398Z,29.70
2019-01-16T21:05:10.488Z,19.43
2019-01-16T21:07:50.974Z,21.30
2019-01-16T21:10:37.080Z,21.03
2019-01-16T21:13:24.402Z,22.37
2019-01-16T21:16:31.903Z,20.63
2019-01-16T21:19:30.644Z,18.97
2019-01-16T21:22:20.895Z,19.03
2019-01-16T21:25:01.549Z,19.17
2019-01-16T21:27:59.561Z,22.97
2019-01-16T21:30:47.089Z,22.07
2019-01-16T21:33:40.559Z,18.57
2019-01-16T21:36:20.350Z,17.13
2019-01-16T21:39:06.050Z,17.37
2019-01-16T21:42:05.521Z,18.77
2019-01-16T21:44:53.044Z,17.67
2019-01-16T21:47:43.641Z,16.10
2019-01-16T21:50:28.752Z,17.27
2019-01-16T21:53:30.417Z,19.20
2019-01-16T21:56:12.741Z,17.47
2019-01-16T21:59:00.101Z,13.67
2019-01-16T22:01:59.370Z,12.33
2019-01-16T22:04:36.115Z,11.07
2019-01-16T22:07:32.716Z,11.13
2019-01-16T22:10:26.330Z,15.47
2019-01-16T22:13:24.602Z,11.07
2019-01-16T22:16:32.875Z,16.27
2019-01-16T22:19:19.822Z,18.73
2019-01-16T22:22:09.904Z,14.50
2019-01-16T22:24:55.531Z,14.53
2019-01-16T22:27:40.241Z,10.87
2019-01-16T22:30:23.808Z,10.03
2019-01-16T22:33:22.885Z,12.07
2019-01-16T22:36:22.031Z,12.40
2019-01-16T22:39:18.110Z,9.17
2019-01-16T22:42:14.074Z,12.97
2019-01-16T22:45:00.213Z,12.30
2019-01-16T22:47:46.235Z,10.10
2019-01-16T22:50:32.292Z,10.43
2019-01-16T22:53:43.168Z,10.23
2019-01-16T22:56:24.946Z,8.27
2019-01-16T22:59:24.067Z,10.33
2019-01-16T23:02:11.335Z,10.70
2019-01-16T23:04:57.002Z,11.33
2019-01-16T23:07:32.588Z,9.77
2019-01-16T23:10:23.012Z,12.80
2019-01-16T23:13:16.238Z,13.03
2019-01-16T23:15:54.573Z,11.03
2019-01-16T23:18:40.113Z,9.13
2019-01-16T23:21:39.622Z,10.00
2019-01-16T23:24:25.353Z,9.67
2019-01-16T23:27:18.451Z,9.00
2019-01-16T23:29:57.445Z,8.57
2019-01-16T23:32:40.621Z,10.00
2019-01-16T23:35:43.666Z,7.57
2019-01-16T23:38:29.381Z,7.60
2019-01-16T23:41:09.234Z,8.67
2019-01-16T23:43:56.477Z,10.40
2019-01-16T23:46:43.817Z,9.03
2019-01-16T23:49:31.204Z,8.57
2019-01-16T23:52:24.516Z,9.00
2019-01-16T23:55:14.541Z,9.30
2019-01-16T23:58:01.861Z,9.53
